Terminal Aerodrome Forecast
Issued by NWS Anchorage, AK

Home | Current Version | Previous Version | Text Only | Print | Product List | Glossary On
Versions: 1 2 3 4 5 6 7 8 9 10 11 12 13 14 15 16 17 18 19 20 21 22 23 24 25 26 27 28 29 30 31 32 33 34 35 36 37 38 39 40 41 42 43 44
000
FTAK31 PANC 230202 AAA
TAFANC
TAF AMD
PANC 230202Z 2302/2406 00000KT P6SM FEW012 SCT060 BKN150
      TEMPO 2302/2306 6SM -SN OVC025
     FM230800 00000KT P6SM VCSH OVC035
     FM231800 36005KT P6SM BKN070 OVC120
     FM240000 36005KT P6SM OVC050=

USA.gov is the U.S. government's official web portal to all federal, state and local government web resources and services.